Time;durP1;ratioP1;P1;durP2;ratioP2;P2;SDS_P1;SDS_P2;PMS_P1;PMS_P2;Temp;Humidity;BMP_temperature;BMP_pressure;BME280_temperature;BME280_humidity;BME280_pressure;Samples;Min_cycle;Max_cycle;Signal;HPM_P1;HPM_P2
2022/03/09 00:02:27;;;;;;;13.63;8.68;;;;;;;3.86;67.47;102150.41;5073496;28;20041;-31
2022/03/09 00:04:54;;;;;;;15.73;9.35;;;;;;;3.84;67.85;102160.81;5073874;28;20048;-28
2022/03/09 00:07:26;;;;;;;13.32;9.23;;;;;;;3.81;67.86;102162.94;5073870;28;20405;-26
2022/03/09 00:09:54;;;;;;;15.07;9.80;;;;;;;3.76;68.78;102165.56;5073186;28;20047;-28
2022/03/09 00:12:22;;;;;;;13.00;9.38;;;;;;;3.75;68.91;102171.28;5073849;28;20543;-30
2022/03/09 00:14:50;;;;;;;14.10;9.40;;;;;;;3.71;69.17;102179.16;5073986;28;20048;-27
2022/03/09 00:17:18;;;;;;;15.13;9.40;;;;;;;3.68;69.82;102179.59;5073002;28;20087;-29
2022/03/09 00:19:47;;;;;;;13.05;8.52;;;;;;;3.63;70.30;102173.88;5073661;28;20052;-28
2022/03/09 00:22:15;;;;;;;13.32;9.25;;;;;;;3.61;70.47;102173.25;5073936;28;20493;-29
2022/03/09 00:24:43;;;;;;;13.20;8.77;;;;;;;3.56;71.49;102167.59;5072805;28;20531;-29
2022/03/09 00:27:11;;;;;;;14.95;8.82;;;;;;;3.52;71.92;102171.84;5073404;28;20044;-30
2022/03/09 00:29:39;;;;;;;14.27;9.23;;;;;;;3.49;72.00;102166.75;5072155;28;20055;-29
2022/03/09 00:32:08;;;;;;;14.38;8.50;;;;;;;3.47;72.49;102174.41;5071121;28;20067;-33
2022/03/09 00:34:36;;;;;;;13.40;9.32;;;;;;;3.45;73.09;102179.28;5058980;28;20449;-29
2022/03/09 00:37:05;;;;;;;12.82;8.48;;;;;;;3.45;72.96;102187.56;5071905;28;20074;-27
2022/03/09 00:39:34;;;;;;;16.98;9.45;;;;;;;3.41;73.68;102192.69;5070295;28;20052;-30
2022/03/09 00:42:01;;;;;;;14.57;9.68;;;;;;;3.38;74.01;102189.53;5071385;28;20052;-27
2022/03/09 00:44:30;;;;;;;16.27;9.45;;;;;;;3.38;73.93;102189.53;5071041;28;20508;-31
2022/03/09 00:46:58;;;;;;;15.07;9.70;;;;;;;3.36;74.08;102188.91;5072437;28;20045;-27
2022/03/09 00:49:26;;;;;;;13.65;9.77;;;;;;;3.33;74.56;102192.09;5072842;28;20189;-28
2022/03/09 00:51:54;;;;;;;14.48;9.50;;;;;;;3.30;74.91;102190.63;5072682;28;20520;-29
2022/03/09 00:54:23;;;;;;;16.00;10.20;;;;;;;3.26;75.20;102192.13;5072796;28;20353;-30
2022/03/09 00:56:51;;;;;;;12.32;8.30;;;;;;;3.24;75.08;102187.88;5072449;28;20044;-30
2022/03/09 00:59:21;;;;;;;13.82;9.13;;;;;;;3.24;75.26;102187.88;5072302;28;20063;-28
2022/03/09 01:01:49;;;;;;;14.07;9.32;;;;;;;3.21;74.89;102185.56;5072741;28;20055;-29
2022/03/09 01:04:17;;;;;;;15.68;10.43;;;;;;;3.16;76.05;102175.19;5073110;28;20040;-28
2022/03/09 01:06:44;;;;;;;13.93;9.23;;;;;;;3.14;75.59;102180.09;5071292;28;20064;-26
2022/03/09 01:09:12;;;;;;;15.23;9.45;;;;;;;3.14;75.38;102170.97;5072342;28;20072;-29
2022/03/09 01:11:43;;;;;;;13.25;8.93;;;;;;;3.11;75.50;102177.75;5072722;28;20048;-28
2022/03/09 01:14:11;;;;;;;13.65;9.25;;;;;;;3.08;75.39;102173.50;5071704;28;20053;-31
2022/03/09 01:16:39;;;;;;;13.75;8.75;;;;;;;3.03;75.59;102176.06;5072809;28;20053;-32
2022/03/09 01:19:07;;;;;;;14.18;8.60;;;;;;;3.00;75.86;102173.75;5072655;28;20145;-27
2022/03/09 01:21:36;;;;;;;14.10;9.80;;;;;;;2.95;76.30;102175.47;5071788;28;20471;-30
2022/03/09 01:24:04;;;;;;;16.50;10.18;;;;;;;2.92;76.53;102182.28;5072481;28;20036;-29
2022/03/09 01:26:32;;;;;;;13.20;9.05;;;;;;;2.89;76.39;102181.84;5072210;28;20057;-29
2022/03/09 01:29:01;;;;;;;12.80;8.85;;;;;;;2.88;76.87;102181.00;5071716;28;20573;-32
2022/03/09 01:31:29;;;;;;;15.35;10.07;;;;;;;2.84;77.43;102185.25;5061497;28;20041;-28
2022/03/09 01:33:56;;;;;;;13.48;9.50;;;;;;;2.84;77.42;102171.47;5071459;28;20055;-29
2022/03/09 01:36:24;;;;;;;14.70;9.82;;;;;;;2.83;77.34;102169.75;5072249;28;20076;-30
2022/03/09 01:38:52;;;;;;;14.85;9.18;;;;;;;2.80;77.43;102169.38;5072446;28;20064;-30
2022/03/09 01:41:20;;;;;;;15.98;9.48;;;;;;;2.79;76.97;102168.53;5071109;28;20063;-30
2022/03/09 01:44:07;;;;;;;15.27;9.40;;;;;;;2.80;77.07;102169.38;5072217;28;20412;-30
2022/03/09 01:46:35;;;;;;;13.30;8.95;;;;;;;2.76;77.63;102169.81;5068859;28;20037;-28
2022/03/09 01:49:04;;;;;;;13.05;9.20;;;;;;;2.76;78.00;102168.97;5071455;28;20045;-33
2022/03/09 01:51:33;;;;;;;13.73;9.23;;;;;;;2.78;77.02;102161.31;5071889;28;20055;-28
2022/03/09 01:54:01;;;;;;;14.65;9.80;;;;;;;2.75;77.81;102162.59;5071982;28;20055;-30
2022/03/09 01:56:29;;;;;;;15.15;9.30;;;;;;;2.75;77.59;102162.59;5071036;28;20454;-31
2022/03/09 01:58:57;;;;;;;12.68;8.48;;;;;;;2.79;76.91;102152.00;5068486;28;20040;-32
2022/03/09 02:01:26;;;;;;;15.80;9.45;;;;;;;2.79;76.67;102163.03;5071872;28;20520;-29
2022/03/09 02:03:57;;;;;;;12.50;9.20;;;;;;;2.78;77.08;102161.31;5071101;28;20102;-31
2022/03/09 02:06:26;;;;;;;13.60;8.75;;;;;;;2.76;76.51;102166.19;5071728;28;20086;-30
2022/03/09 02:11:40;;;;;;;14.93;9.35;;;;;;;2.69;76.50;102160.69;5071979;28;20040;-29
2022/03/09 02:14:26;;;;;;;13.25;8.90;;;;;;;2.65;76.52;102164.09;5071529;28;20048;-30
2022/03/09 02:16:55;;;;;;;15.43;9.70;;;;;;;2.57;76.83;102164.34;5071192;28;20413;-28
2022/03/09 02:19:23;;;;;;;13.40;9.45;;;;;;;2.53;76.90;102163.91;5070915;28;20036;-27
2022/03/09 02:21:55;;;;;;;13.80;9.45;;;;;;;2.48;77.86;102165.59;5071677;28;20527;-30
2022/03/09 02:24:26;;;;;;;16.43;9.27;;;;;;;2.41;77.72;102163.69;5070694;28;20048;-28
2022/03/09 02:26:53;;;;;;;14.30;9.23;;;;;;;2.39;77.57;102163.09;5071503;28;20382;-29
2022/03/09 02:29:21;;;;;;;17.27;9.77;;;;;;;2.37;78.04;102162.44;5071813;28;20389;-26
2022/03/09 02:31:49;;;;;;;12.75;8.93;;;;;;;2.33;78.04;102161.19;5062278;28;20063;-30
2022/03/09 02:34:17;;;;;;;13.50;8.60;;;;;;;2.32;77.99;102161.38;5071423;28;20059;-27
2022/03/09 02:36:44;;;;;;;17.35;9.57;;;;;;;2.25;77.98;102161.38;5071361;28;20056;-28
2022/03/09 02:39:12;;;;;;;11.68;8.50;;;;;;;2.24;78.22;102159.69;5070426;28;20055;-30
2022/03/09 02:41:41;;;;;;;15.40;9.77;;;;;;;2.23;78.48;102165.41;5071166;28;20055;-29
2022/03/09 02:44:09;;;;;;;13.00;9.05;;;;;;;2.21;77.71;102170.25;5070767;28;20045;-33
2022/03/09 02:46:37;;;;;;;15.40;9.18;;;;;;;2.19;77.94;102166.91;5071526;28;20040;-29
2022/03/09 02:49:05;;;;;;;13.30;8.20;;;;;;;2.19;78.10;102165.00;5060430;28;20051;-33
2022/03/09 02:51:33;;;;;;;13.88;8.93;;;;;;;2.17;77.62;102166.28;5070609;28;20048;-29
2022/03/09 02:54:01;;;;;;;13.68;9.43;;;;;;;2.13;78.05;102160.34;5071404;28;20421;-33
2022/03/09 02:56:29;;;;;;;14.65;8.95;;;;;;;2.12;77.62;102150.38;5071294;28;20044;-28
2022/03/09 02:58:59;;;;;;;12.95;8.95;;;;;;;2.12;77.36;102155.88;5067036;28;20059;-27
2022/03/09 03:01:28;;;;;;;13.38;9.02;;;;;;;2.12;77.54;102157.78;5060319;28;20083;-29
2022/03/09 03:03:56;;;;;;;14.80;9.00;;;;;;;2.15;77.10;102152.72;5070773;28;20094;-29
2022/03/09 03:06:24;;;;;;;13.98;9.43;;;;;;;2.15;76.50;102154.63;5070408;28;20048;-28
2022/03/09 03:08:52;;;;;;;13.43;9.40;;;;;;;2.17;76.52;102150.59;5070921;28;20044;-28
2022/03/09 03:11:20;;;;;;;14.75;9.57;;;;;;;2.15;75.73;102151.88;5071347;28;20071;-30
2022/03/09 03:13:49;;;;;;;15.65;8.80;;;;;;;2.16;75.65;102143.41;5070485;28;20063;-29
2022/03/09 03:16:18;;;;;;;13.48;8.82;;;;;;;2.19;75.30;102144.88;5070716;28;20043;-27
2022/03/09 03:18:47;;;;;;;15.23;9.15;;;;;;;2.19;74.99;102144.88;5071029;28;20132;-28
2022/03/09 03:21:15;;;;;;;13.70;9.20;;;;;;;2.20;74.68;102141.06;5070056;28;20119;-30
2022/03/09 03:23:43;;;;;;;12.75;8.35;;;;;;;2.20;74.63;102152.91;5071199;28;20139;-30
2022/03/09 03:26:11;;;;;;;12.52;7.75;;;;;;;2.20;73.97;102155.66;5071094;28;20056;-27
2022/03/09 03:28:39;;;;;;;13.50;8.70;;;;;;;2.20;73.93;102154.84;5070031;28;20043;-34
2022/03/09 03:31:06;;;;;;;13.15;8.57;;;;;;;2.20;73.92;102158.41;5072514;28;20043;-30
2022/03/09 03:33:35;;;;;;;14.93;9.38;;;;;;;2.22;73.88;102147.19;5073762;28;20040;-29
2022/03/09 03:36:04;;;;;;;13.73;8.60;;;;;;;2.18;73.45;102152.28;5074845;28;20041;-28
2022/03/09 03:38:32;;;;;;;12.40;8.88;;;;;;;2.19;73.34;102150.38;5074496;28;20052;-29
2022/03/09 03:40:59;;;;;;;17.70;9.25;;;;;;;2.19;73.00;102153.13;5073611;28;20051;-29
2022/03/09 03:43:27;;;;;;;14.57;8.55;;;;;;;2.19;73.22;102148.47;5074806;28;20132;-29
2022/03/09 03:45:55;;;;;;;13.60;8.88;;;;;;;2.16;73.05;102151.66;5074312;28;20040;-27
2022/03/09 03:48:23;;;;;;;12.65;8.63;;;;;;;2.17;72.39;102144.25;5073517;28;20128;-31
2022/03/09 03:50:52;;;;;;;11.50;8.55;;;;;;;2.16;72.28;102146.16;5074083;28;20461;-27
2022/03/09 03:53:20;;;;;;;10.68;7.93;;;;;;;2.17;72.03;102144.25;5074411;28;20048;-29
2022/03/09 03:55:47;;;;;;;12.57;8.00;;;;;;;2.15;72.13;102144.44;5073663;28;20051;-33
2022/03/09 03:58:15;;;;;;;12.70;8.07;;;;;;;2.13;71.78;102142.97;5074366;28;20364;-27
2022/03/09 04:00:43;;;;;;;13.23;8.05;;;;;;;2.13;71.58;102146.56;5073805;28;20037;-31
2022/03/09 04:03:11;;;;;;;10.05;7.32;;;;;;;2.12;71.83;102141.28;5073699;28;20055;-30
2022/03/09 04:05:39;;;;;;;12.18;7.97;;;;;;;2.11;71.44;102137.66;5073961;28;20060;-29
2022/03/09 04:08:08;;;;;;;10.63;7.20;;;;;;;2.09;71.13;102139.78;5074151;28;20050;-28
2022/03/09 04:10:36;;;;;;;13.27;8.50;;;;;;;2.10;71.15;102148.88;5073106;28;20436;-30
2022/03/09 04:13:04;;;;;;;13.90;8.48;;;;;;;2.09;70.87;102148.03;5073740;28;20044;-29
2022/03/09 04:15:33;;;;;;;13.48;8.65;;;;;;;2.08;70.69;102138.94;5072591;28;20053;-30
2022/03/09 04:18:05;;;;;;;12.13;8.15;;;;;;;2.08;70.23;102143.59;5071806;28;20052;-28
2022/03/09 04:20:33;;;;;;;15.32;8.48;;;;;;;2.00;71.11;102146.53;5071763;28;20072;-27
2022/03/09 04:23:00;;;;;;;13.73;8.00;;;;;;;1.98;71.05;102148.69;5070675;28;20336;-31
2022/03/09 04:25:30;;;;;;;12.77;8.85;;;;;;;1.93;71.43;102156.72;5072027;28;20501;-27
2022/03/09 04:27:58;;;;;;;13.52;8.68;;;;;;;1.91;71.92;102150.56;5071348;28;20040;-26
2022/03/09 04:30:26;;;;;;;12.52;8.13;;;;;;;1.90;72.03;102146.13;5070654;28;20382;-32
2022/03/09 04:32:53;;;;;;;13.20;8.95;;;;;;;1.85;72.40;102143.16;5071998;28;20428;-27
2022/03/09 04:35:21;;;;;;;13.63;7.90;;;;;;;1.82;72.68;102146.31;5071833;28;20044;-30
2022/03/09 04:37:49;;;;;;;12.70;8.75;;;;;;;1.79;72.57;102150.38;5069355;28;20452;-29
2022/03/09 04:40:17;;;;;;;13.75;8.18;;;;;;;1.76;73.21;102148.03;5072223;28;20045;-28
2022/03/09 04:42:46;;;;;;;13.25;8.70;;;;;;;1.75;72.78;102156.50;5072241;28;20090;-30
2022/03/09 04:45:14;;;;;;;15.07;9.32;;;;;;;1.72;73.24;102144.84;5071897;28;20061;-29
2022/03/09 04:47:42;;;;;;;12.38;8.63;;;;;;;1.71;73.76;102143.16;5072700;28;20052;-28
2022/03/09 04:50:13;;;;;;;13.93;9.43;;;;;;;1.66;73.64;102134.66;5073273;28;20072;-30
2022/03/09 04:52:40;;;;;;;14.55;9.13;;;;;;;1.65;73.87;102132.13;5072077;28;20480;-28
2022/03/09 04:55:09;;;;;;;12.55;8.15;;;;;;;1.63;74.48;102143.31;5073757;28;20045;-35
2022/03/09 04:57:37;;;;;;;12.93;8.25;;;;;;;1.60;74.21;102143.75;5072975;28;20048;-28
2022/03/09 05:00:08;;;;;;;13.73;9.02;;;;;;;1.57;74.35;102135.94;5072325;28;20040;-26
2022/03/09 05:02:36;;;;;;;13.70;8.95;;;;;;;1.57;74.51;102140.59;5072809;28;20045;-26
2022/03/09 05:05:05;;;;;;;12.63;8.40;;;;;;;1.58;74.53;102137.63;5072081;28;20110;-27
2022/03/09 05:07:33;;;;;;;13.38;8.70;;;;;;;1.57;74.55;102141.44;5072595;28;20520;-28
2022/03/09 05:10:01;;;;;;;12.82;8.15;;;;;;;1.55;74.92;102143.53;5072324;28;20044;-31
2022/03/09 05:12:30;;;;;;;11.80;8.05;;;;;;;1.53;74.83;102137.41;5071678;28;20506;-28
2022/03/09 05:14:57;;;;;;;13.45;8.25;;;;;;;1.50;74.68;102137.81;5072420;28;20052;-28
2022/03/09 05:17:26;;;;;;;15.07;8.48;;;;;;;1.48;75.24;102153.66;5072656;28;20427;-28
2022/03/09 05:19:54;;;;;;;14.18;9.15;;;;;;;1.45;75.54;102153.22;5071663;28;20067;-30
2022/03/09 05:22:22;;;;;;;13.52;8.32;;;;;;;1.45;76.28;102158.72;5072663;28;20059;-29
2022/03/09 05:24:52;;;;;;;10.98;7.50;;;;;;;1.44;76.56;102162.53;5072496;28;20417;-30
2022/03/09 05:27:20;;;;;;;14.02;9.50;;;;;;;1.43;76.86;102163.59;5071509;28;20379;-29
2022/03/09 05:29:48;;;;;;;15.40;8.85;;;;;;;1.40;76.80;102156.59;5071744;28;20059;-28
2022/03/09 05:32:16;;;;;;;13.38;9.13;;;;;;;1.37;77.71;102152.38;5070166;28;20123;-29
2022/03/09 05:34:46;;;;;;;14.35;8.85;;;;;;;1.36;78.12;102155.34;5070441;28;20051;-31
2022/03/09 05:37:14;;;;;;;14.50;8.52;;;;;;;1.34;78.40;102160.19;5072661;28;20079;-30
2022/03/09 05:39:41;;;;;;;13.88;8.82;;;;;;;1.31;79.34;102160.59;5071924;28;20488;-30
2022/03/09 05:42:09;;;;;;;13.43;9.10;;;;;;;1.31;79.24;102163.34;5071378;28;20056;-30
2022/03/09 05:44:38;;;;;;;16.67;9.52;;;;;;;1.28;80.22;102177.50;5072040;28;20052;-27
2022/03/09 05:47:06;;;;;;;14.80;9.25;;;;;;;1.28;80.71;102181.09;5071182;28;20516;-30
2022/03/09 05:49:34;;;;;;;16.95;9.40;;;;;;;1.28;80.28;102188.50;5071579;28;20072;-27
2022/03/09 05:52:04;;;;;;;13.35;9.48;;;;;;;1.27;80.93;102187.66;5070575;28;20044;-28
2022/03/09 05:54:32;;;;;;;15.00;9.27;;;;;;;1.25;80.94;102188.91;5069118;28;20056;-32
2022/03/09 05:57:00;;;;;;;13.75;8.77;;;;;;;1.23;80.33;102189.13;5070796;28;20390;-29
2022/03/09 05:59:27;;;;;;;11.18;7.93;;;;;;;1.22;80.32;102189.31;5069938;28;20049;-26
2022/03/09 06:01:55;;;;;;;15.73;9.40;;;;;;;1.20;80.65;102196.94;5068444;28;20377;-30
2022/03/09 06:04:23;;;;;;;13.18;8.55;;;;;;;1.17;80.65;102200.09;5070259;28;20131;-31
2022/03/09 06:06:51;;;;;;;14.45;9.05;;;;;;;1.14;80.87;102195.84;5070402;28;20049;-28
2022/03/09 06:09:20;;;;;;;16.52;9.20;;;;;;;1.14;80.88;102200.50;5068298;28;20048;-27
2022/03/09 06:11:49;;;;;;;13.85;8.70;;;;;;;1.13;80.75;102201.56;5070175;28;20052;-29
2022/03/09 06:14:17;;;;;;;13.80;9.20;;;;;;;1.11;80.87;102206.41;5070324;28;20049;-27
2022/03/09 06:16:44;;;;;;;15.73;9.20;;;;;;;1.12;80.95;102213.59;5069928;28;20048;-32
2022/03/09 06:19:12;;;;;;;13.15;8.43;;;;;;;1.10;81.22;102205.56;5070577;28;20033;-33
2022/03/09 06:21:40;;;;;;;15.40;8.90;;;;;;;1.10;80.53;102204.72;5070391;28;20056;-29
2022/03/09 06:24:09;;;;;;;14.90;9.15;;;;;;;1.10;81.11;102199.22;5069619;28;20413;-31
2022/03/09 06:26:38;;;;;;;15.18;9.45;;;;;;;1.09;81.28;102203.84;5069773;28;20497;-29
2022/03/09 06:29:08;;;;;;;16.50;9.75;;;;;;;1.09;81.10;102205.75;5070260;28;20505;-28
2022/03/09 06:31:36;;;;;;;15.20;9.10;;;;;;;1.09;81.31;102208.50;5069801;28;20059;-33
2022/03/09 06:34:04;;;;;;;15.70;9.23;;;;;;;1.09;81.75;102208.50;5071049;28;20421;-29
2022/03/09 06:36:32;;;;;;;14.73;8.75;;;;;;;1.11;81.81;102199.00;5070450;28;20044;-27
2022/03/09 06:39:00;;;;;;;14.82;9.18;;;;;;;1.14;82.06;102208.75;5070635;28;20055;-31
2022/03/09 06:41:29;;;;;;;17.33;9.40;;;;;;;1.18;81.08;102207.31;5069754;28;20127;-27
2022/03/09 06:43:59;;;;;;;15.50;8.65;;;;;;;1.20;81.71;102210.69;5067838;28;20051;-26
2022/03/09 06:46:27;;;;;;;13.93;8.93;;;;;;;1.24;81.49;102217.47;5069728;28;20516;-29
2022/03/09 06:48:55;;;;;;;13.60;9.13;;;;;;;1.27;80.62;102209.66;5070807;28;20057;-30
2022/03/09 06:51:23;;;;;;;13.73;8.88;;;;;;;1.31;81.26;102215.59;5069803;28;20051;-26
2022/03/09 06:53:51;;;;;;;15.57;9.75;;;;;;;1.35;80.96;102220.50;5070892;28;20044;-29
2022/03/09 06:56:19;;;;;;;17.70;8.65;;;;;;;1.42;80.69;102228.75;5071133;28;20053;-29
2022/03/09 06:58:46;;;;;;;13.27;8.80;;;;;;;1.47;81.13;102219.88;5070490;28;20056;-28
2022/03/09 07:01:15;;;;;;;12.85;8.65;;;;;;;1.55;80.23;102217.81;5071143;28;20037;-31
2022/03/09 07:03:44;;;;;;;14.10;8.40;;;;;;;1.62;80.21;102221.41;5071117;28;20048;-27
2022/03/09 07:06:13;;;;;;;12.82;8.77;;;;;;;1.75;80.12;102214.28;5073917;28;20102;-29
2022/03/09 07:08:40;;;;;;;12.95;8.85;;;;;;;2.00;80.04;102223.63;5075048;28;20041;-28
2022/03/09 07:11:08;;;;;;;12.13;8.65;;;;;;;2.33;78.91;102219.00;5066483;28;20147;-29
2022/03/09 07:13:37;;;;;;;11.50;8.20;;;;;;;2.67;77.50;102219.84;5074090;28;20359;-29
2022/03/09 07:16:05;;;;;;;14.63;9.30;;;;;;;3.03;76.29;102220.19;5074921;28;20190;-30
2022/03/09 07:18:35;;;;;;;15.25;9.32;;;;;;;3.40;74.91;102218.56;5073923;28;20486;-28
2022/03/09 07:21:03;;;;;;;13.38;8.57;;;;;;;3.70;74.18;102220.78;5075012;28;20040;-26
2022/03/09 07:23:30;;;;;;;11.95;7.93;;;;;;;4.02;73.16;102218.88;5074897;28;20068;-30
2022/03/09 07:25:58;;;;;;;14.13;9.27;;;;;;;4.24;71.86;102211.94;5073937;28;20050;-29
2022/03/09 07:28:26;;;;;;;14.00;9.65;;;;;;;4.49;71.50;102221.09;5074745;28;20478;-35
2022/03/09 07:30:57;;;;;;;15.25;9.63;;;;;;;4.74;70.91;102225.78;5074688;28;20055;-33
2022/03/09 07:33:25;;;;;;;14.20;9.88;;;;;;;4.97;69.94;102223.19;5073607;28;20463;-34
2022/03/09 07:35:56;;;;;;;14.18;9.85;;;;;;;5.15;69.46;102219.59;5074496;28;20052;-30
2022/03/09 07:38:24;;;;;;;13.65;9.48;;;;;;;5.39;69.02;102221.44;5072845;28;20135;-30
2022/03/09 07:40:51;;;;;;;14.90;10.05;;;;;;;5.60;68.13;102219.25;5073659;28;20501;-30
2022/03/09 07:43:21;;;;;;;14.02;8.82;;;;;;;5.84;67.63;102212.75;5074240;28;20494;-29
2022/03/09 07:45:49;;;;;;;13.73;9.10;;;;;;;6.01;66.83;102218.50;5074492;28;20062;-30
2022/03/09 07:48:16;;;;;;;15.70;9.80;;;;;;;6.07;65.19;102217.56;5073434;28;20122;-31
2022/03/09 07:50:45;;;;;;;13.88;9.68;;;;;;;6.17;65.19;102221.47;5074616;28;20052;-29
2022/03/09 07:53:14;;;;;;;13.20;9.77;;;;;;;6.38;64.59;102231.16;5073936;28;20124;-29
2022/03/09 07:55:42;;;;;;;13.57;9.30;;;;;;;6.61;64.24;102227.56;5072508;28;20067;-30
2022/03/09 07:58:09;;;;;;;13.55;9.35;;;;;;;6.88;61.89;102223.25;5074044;28;20516;-32
2022/03/09 08:00:37;;;;;;;13.82;9.50;;;;;;;7.05;61.40;102222.50;5074060;28;20059;-30
2022/03/09 08:03:05;;;;;;;12.93;8.82;;;;;;;7.21;61.24;102230.09;5074092;28;20040;-33
2022/03/09 08:05:53;;;;;;;15.05;9.43;;;;;;;7.47;59.33;102224.00;5074166;28;20041;-34
2022/03/09 08:08:23;;;;;;;14.05;9.35;;;;;;;7.68;59.39;102219.72;5073281;28;20048;-28
2022/03/09 08:10:51;;;;;;;13.02;9.30;;;;;;;7.81;57.89;102233.31;5073708;28;20045;-33
2022/03/09 08:13:19;;;;;;;14.40;9.55;;;;;;;7.86;57.02;102224.25;5073878;28;20047;-32
2022/03/09 08:15:47;;;;;;;12.40;9.18;;;;;;;7.93;56.80;102224.94;5072963;28;20074;-35
2022/03/09 08:18:15;;;;;;;13.20;8.35;;;;;;;8.01;56.34;102229.25;5073397;28;20068;-31
2022/03/09 08:20:42;;;;;;;12.48;8.85;;;;;;;8.14;55.80;102234.53;5073700;28;20067;-28
2022/03/09 08:23:11;;;;;;;12.40;9.35;;;;;;;8.41;53.87;102246.72;5072738;28;20047;-33
2022/03/09 08:25:40;;;;;;;12.63;9.32;;;;;;;8.48;52.57;102246.56;5073475;28;20052;-30
2022/03/09 08:28:08;;;;;;;15.02;9.55;;;;;;;8.36;52.99;102234.69;5073563;28;20123;-28
2022/03/09 08:30:37;;;;;;;15.18;9.23;;;;;;;8.30;54.32;102244.84;5072794;28;20113;-31
2022/03/09 08:33:05;;;;;;;12.15;8.80;;;;;;;8.28;53.56;102231.19;5073532;28;20041;-32
2022/03/09 08:35:33;;;;;;;13.18;8.68;;;;;;;8.41;53.93;102231.97;5073612;28;20407;-32
2022/03/09 08:38:01;;;;;;;13.35;8.85;;;;;;;8.55;53.30;102245.31;5072604;28;20065;-31
2022/03/09 08:40:29;;;;;;;11.80;9.20;;;;;;;8.60;53.00;102241.75;5073415;28;20517;-28
2022/03/09 08:42:58;;;;;;;12.07;8.77;;;;;;;8.80;53.05;102242.09;5072685;28;20037;-28
2022/03/09 08:45:26;;;;;;;14.32;9.45;;;;;;;8.99;51.38;102237.13;5073244;28;20520;-31
2022/03/09 08:47:54;;;;;;;12.30;8.80;;;;;;;9.02;51.20;102239.38;5073400;28;20470;-28
2022/03/09 08:50:22;;;;;;;11.82;8.95;;;;;;;9.09;50.88;102230.88;5072013;28;20417;-33
2022/03/09 08:53:01;;;;;;;12.82;8.88;;;;;;;9.27;50.38;102231.41;5073288;28;20131;-33
2022/03/09 08:55:29;;;;;;;12.52;8.95;;;;;;;9.37;49.50;102216.78;5073020;28;20048;-31
2022/03/09 08:57:57;;;;;;;15.13;9.82;;;;;;;9.30;48.28;102219.75;5072515;28;20056;-34
2022/03/09 09:00:26;;;;;;;14.25;9.10;;;;;;;9.30;47.85;102214.19;5072990;28;20049;-33
2022/03/09 09:02:55;;;;;;;11.85;9.00;;;;;;;9.35;49.37;102210.63;5072761;28;20128;-33
2022/03/09 09:05:26;;;;;;;13.00;8.90;;;;;;;9.61;48.96;102214.56;5072341;28;20106;-33
2022/03/09 09:07:53;;;;;;;12.15;8.77;;;;;;;9.91;48.98;102217.75;5072719;28;20048;-31
2022/03/09 09:10:27;;;;;;;12.63;8.85;;;;;;;9.99;48.42;102220.03;5072952;28;20391;-29
2022/03/09 09:12:57;;;;;;;13.00;8.82;;;;;;;10.19;48.39;102210.25;5071710;28;20507;-30
2022/03/09 09:15:28;;;;;;;14.93;9.52;;;;;;;10.32;47.08;102230.19;5072727;28;20055;-28
2022/03/09 09:17:57;;;;;;;12.55;8.85;;;;;;;10.51;46.94;102238.19;5072899;28;20135;-30
2022/03/09 09:20:45;;;;;;;12.02;9.02;;;;;;;10.64;45.38;102238.56;5066832;28;20123;-33
2022/03/09 09:23:13;;;;;;;15.13;8.52;;;;;;;10.65;45.33;102240.25;5072414;28;20044;-33
2022/03/09 09:25:44;;;;;;;13.93;10.15;;;;;;;10.58;44.67;102249.97;5071694;28;20045;-28
2022/03/09 09:28:12;;;;;;;14.45;9.82;;;;;;;10.56;45.55;102244.66;5071646;28;20083;-36
2022/03/09 09:30:41;;;;;;;11.80;8.82;;;;;;;10.52;45.55;102242.66;5071239;28;20456;-31
2022/03/09 09:33:09;;;;;;;13.50;9.88;;;;;;;10.56;45.34;102241.03;5071470;28;20079;-35
2022/03/09 09:35:36;;;;;;;14.40;9.55;;;;;;;10.46;45.31;102241.75;5072178;28;20110;-31
2022/03/09 09:38:09;;;;;;;14.38;9.77;;;;;;;10.51;45.28;102241.81;5071952;28;20049;-30
2022/03/09 09:40:41;;;;;;;14.85;9.48;;;;;;;10.72;45.44;102233.63;5071327;28;20048;-30
2022/03/09 09:43:11;;;;;;;13.15;9.18;;;;;;;10.98;45.29;102233.56;5072330;28;20140;-28
2022/03/09 09:45:40;;;;;;;13.88;9.02;;;;;;;11.33;45.22;102241.31;5072135;28;20075;-33
2022/03/09 09:48:10;;;;;;;13.82;9.68;;;;;;;11.67;44.71;102241.75;5071161;28;20045;-29
2022/03/09 09:50:38;;;;;;;14.13;9.95;;;;;;;11.81;43.90;102239.31;5071804;28;20121;-31
2022/03/09 09:53:07;;;;;;;13.50;9.32;;;;;;;11.64;43.36;102241.47;5071757;28;20397;-37
2022/03/09 09:55:35;;;;;;;15.32;9.93;;;;;;;11.64;44.09;102233.91;5071326;28;20118;-31
2022/03/09 09:58:04;;;;;;;14.57;9.63;;;;;;;11.73;44.04;102223.91;5071622;28;20049;-30
2022/03/09 10:00:33;;;;;;;15.77;10.02;;;;;;;11.89;43.72;102227.63;5071104;28;20923;-30
2022/03/09 10:03:04;;;;;;;15.15;10.43;;;;;;;12.08;43.16;102220.41;5071696;28;20048;-30
2022/03/09 10:05:32;;;;;;;16.10;10.13;;;;;;;12.14;43.17;102217.63;5071832;28;20052;-34
2022/03/09 10:08:15;;;;;;;13.93;9.50;;;;;;;12.38;41.81;102214.03;5070946;28;20076;-32
2022/03/09 10:10:46;;;;;;;15.65;11.00;;;;;;;12.53;42.08;102221.59;5071922;28;20048;-31
2022/03/09 10:13:16;;;;;;;16.60;10.85;;;;;;;12.46;41.90;102218.22;5071278;28;20071;-31
2022/03/09 10:15:45;;;;;;;17.42;11.40;;;;;;;12.36;41.91;102223.81;5070807;28;20056;-31
2022/03/09 10:18:19;;;;;;;16.10;11.20;;;;;;;12.30;41.58;102228.56;5071204;28;20497;-31
2022/03/09 10:20:50;;;;;;;16.63;12.18;;;;;;;12.30;41.14;102220.16;5069223;28;20084;-30
2022/03/09 10:23:22;;;;;;;18.53;12.07;;;;;;;12.21;40.68;102226.56;5070722;28;20106;-32
2022/03/09 10:26:01;;;;;;;18.50;11.63;;;;;;;12.13;41.36;102213.16;5067929;28;20055;-29
2022/03/09 10:28:28;;;;;;;15.57;11.25;;;;;;;12.32;42.32;102225.50;5070536;28;20049;-28
2022/03/09 10:30:56;;;;;;;18.13;12.00;;;;;;;12.29;41.88;102226.03;5071500;28;20048;-35
2022/03/09 10:33:28;;;;;;;16.30;11.25;;;;;;;12.32;42.29;102215.13;5071466;28;20132;-29
2022/03/09 10:35:55;;;;;;;16.85;11.80;;;;;;;12.25;42.17;102222.09;5069054;28;20037;-30
2022/03/09 10:38:26;;;;;;;15.43;11.27;;;;;;;12.35;42.17;102219.34;5071011;28;20062;-29
2022/03/09 10:40:56;;;;;;;16.48;11.70;;;;;;;12.34;42.40;102212.06;5070722;28;20493;-33
2022/03/09 10:43:27;;;;;;;14.85;10.55;;;;;;;12.57;42.78;102224.69;5070709;28;20037;-30
2022/03/09 10:46:00;;;;;;;16.20;10.70;;;;;;;12.59;43.09;102237.25;5071393;28;20068;-31
2022/03/09 10:48:50;;;;;;;15.75;10.55;;;;;;;12.71;42.64;102220.19;5071377;28;20037;-32
2022/03/09 10:51:32;;;;;;;13.68;10.85;;;;;;;12.95;42.89;102232.50;5070366;28;20078;-32
2022/03/09 10:54:02;;;;;;;15.85;10.98;;;;;;;12.94;41.99;102235.59;5071193;28;20412;-29
2022/03/09 10:56:30;;;;;;;17.30;11.52;;;;;;;13.03;42.74;102231.94;5070498;28;20048;-27
2022/03/09 10:59:09;;;;;;;17.20;12.20;;;;;;;13.18;40.93;102228.31;5071203;28;20053;-31
2022/03/09 11:01:37;;;;;;;15.88;11.65;;;;;;;13.10;41.67;102221.28;5071024;28;20052;-32
2022/03/09 11:04:18;;;;;;;16.13;11.50;;;;;;;13.09;39.30;102229.97;5070308;28;20048;-30
2022/03/09 11:06:49;;;;;;;16.60;11.65;;;;;;;13.00;41.43;102231.63;5070937;28;20151;-29
2022/03/09 11:09:19;;;;;;;17.17;11.53;;;;;;;13.03;41.28;102233.88;5071079;28;20052;-29
2022/03/09 11:11:49;;;;;;;17.92;11.52;;;;;;;12.90;41.22;102237.28;5070208;28;20040;-32
2022/03/09 11:14:18;;;;;;;17.63;12.07;;;;;;;12.94;41.20;102221.59;5070854;28;20072;-34
2022/03/09 11:16:48;;;;;;;17.00;12.07;;;;;;;13.09;41.09;102225.19;5071213;28;20562;-30
2022/03/09 11:19:19;;;;;;;17.25;12.45;;;;;;;13.09;40.03;102232.75;5070261;28;20498;-32
2022/03/09 11:21:48;;;;;;;16.65;11.70;;;;;;;13.10;40.67;102226.03;5070977;28;20102;-27
2022/03/09 11:24:19;;;;;;;18.27;12.60;;;;;;;13.01;39.88;102231.38;5070840;28;20041;-29
2022/03/09 11:26:49;;;;;;;18.55;12.65;;;;;;;13.04;40.75;102232.75;5070334;28;20052;-29
2022/03/09 11:29:28;;;;;;;18.45;12.80;;;;;;;12.80;39.78;102228.84;5070937;28;20054;-30
2022/03/09 11:31:56;;;;;;;18.17;11.57;;;;;;;12.90;40.85;102226.06;5069916;28;20040;-31
2022/03/09 11:34:38;;;;;;;18.40;12.20;;;;;;;13.04;39.35;102228.00;5070379;28;20035;-31